CheckWX is a tool to help pilots better visualize weather data.  It is not intended as a substitute for an official pre-flight weather briefing.

07:05:45 UTC

KLAF TAF
Purdue University Airport
Lafayette, Indiana, USA
KLAF 150520Z 1506/1606 27010G16KT P6SM OVC021 FM150900 28005KT P6SM BKN080 FM151000 VRB04KT P6SM SCT200 AMD LTD TO CLD VIS AND WIND TIL 151400

Nov-15@
06:00 UTC

Nov-15 @ 06:00 UTC

Nov-15@
09:00 UTC

Nov-15 @ 09:00 UTC

KLAF 150520Z 1506/1606 27010G16KT P6SM OVC021
Wind
  • 270° at 10 KTS
  • {Gusting to 16 KTS
Cloud Levels
  • Overcast at 2,100' AGL

Nov-15@
09:00 UTC

Nov-15 @ 09:00 UTC

Nov-15@
10:00 UTC

Nov-15 @ 10:00 UTC

FM150900 28005KT P6SM BKN080

From

From Standard forecast or significant change

Wind
  • 280° at 5 KTS
Cloud Levels
  • Broken at 8,000' AGL

Nov-15@
10:00 UTC

Nov-15 @ 10:00 UTC

Nov-16@
06:00 UTC

Nov-16 @ 06:00 UTC

FM151000 VRB04KT P6SM SCT200 AMD LTD TO CLD VIS AND WIND TIL 151400

From

From Standard forecast or significant change

Wind
  • Variable at 4 KTS
Cloud Levels
  • Scattered at 20,000' AGL